createdAt,value
2023-08-09T00:00:05.986Z,23.70
2023-08-09T00:02:33.022Z,23.60
2023-08-09T00:05:00.085Z,23.60
2023-08-09T00:07:27.141Z,23.60
2023-08-09T00:09:54.193Z,23.60
2023-08-09T00:12:21.029Z,23.60
2023-08-09T00:14:48.030Z,23.60
2023-08-09T00:17:15.036Z,23.60
2023-08-09T00:19:42.025Z,23.60
2023-08-09T00:22:09.966Z,23.50
2023-08-09T00:24:36.989Z,23.50
2023-08-09T00:27:04.807Z,23.50
2023-08-09T00:29:31.954Z,23.40
2023-08-09T00:31:58.973Z,23.40
2023-08-09T00:34:28.599Z,23.40
2023-08-09T00:36:55.255Z,23.40
2023-08-09T00:39:21.895Z,23.50
2023-08-09T00:41:48.530Z,23.40
2023-08-09T00:44:15.151Z,23.50
2023-08-09T00:46:41.794Z,23.60
2023-08-09T00:49:08.865Z,23.70
2023-08-09T00:51:36.094Z,23.80
2023-08-09T00:54:02.716Z,23.90
2023-08-09T00:56:29.342Z,24.00
2023-08-09T00:58:55.927Z,24.00
2023-08-09T01:01:22.595Z,24.00
2023-08-09T01:03:49.264Z,24.10
2023-08-09T01:06:25.107Z,24.00
2023-08-09T01:09:00.414Z,24.00
2023-08-09T01:11:45.299Z,24.00
2023-08-09T01:14:13.193Z,23.90
2023-08-09T01:16:39.969Z,23.80
2023-08-09T01:19:08.488Z,23.80
2023-08-09T01:21:35.211Z,23.70
2023-08-09T01:24:01.877Z,23.70
2023-08-09T01:26:28.516Z,23.70
2023-08-09T01:28:55.862Z,23.70
2023-08-09T01:31:22.476Z,23.70
2023-08-09T01:33:49.180Z,23.60
2023-08-09T01:36:26.142Z,23.60
2023-08-09T01:38:55.859Z,23.60
2023-08-09T01:41:22.574Z,23.60
2023-08-09T01:43:49.180Z,23.60
2023-08-09T01:46:15.989Z,23.60
2023-08-09T01:48:42.714Z,23.50
2023-08-09T01:51:09.622Z,23.60
2023-08-09T01:53:36.215Z,23.50
2023-08-09T01:56:06.730Z,23.50
2023-08-09T01:58:33.347Z,23.50
2023-08-09T02:01:00.035Z,23.50
2023-08-09T02:03:26.791Z,23.50
2023-08-09T02:05:53.881Z,23.50
2023-08-09T02:08:20.503Z,23.40
2023-08-09T02:10:47.132Z,23.50
2023-08-09T02:13:14.779Z,23.50
2023-08-09T02:15:41.379Z,23.40
2023-08-09T02:18:08.625Z,23.50
2023-08-09T02:20:35.392Z,23.50
2023-08-09T02:23:03.970Z,23.60
2023-08-09T02:25:30.608Z,23.80
2023-08-09T02:27:58.427Z,23.80
2023-08-09T02:30:25.212Z,23.90
2023-08-09T02:32:51.910Z,24.00
2023-08-09T02:35:18.614Z,24.00
2023-08-09T02:37:45.237Z,24.00
2023-08-09T02:40:12.257Z,24.00
2023-08-09T02:42:39.314Z,23.90
2023-08-09T02:45:07.026Z,23.80
2023-08-09T02:47:33.679Z,23.80
2023-08-09T02:50:00.279Z,23.80
2023-08-09T02:52:26.915Z,23.80
2023-08-09T02:54:53.544Z,23.70
2023-08-09T02:57:20.170Z,23.70
2023-08-09T02:59:48.105Z,23.70
2023-08-09T03:02:14.753Z,23.70
2023-08-09T03:04:41.934Z,23.70
2023-08-09T03:07:08.558Z,23.60
2023-08-09T03:09:36.005Z,23.60
2023-08-09T03:12:03.193Z,23.60
2023-08-09T03:14:29.870Z,23.60
2023-08-09T03:16:57.277Z,23.60
2023-08-09T03:19:23.953Z,23.50
2023-08-09T03:21:50.555Z,23.50
2023-08-09T03:24:17.204Z,23.50
2023-08-09T03:26:43.794Z,23.50
2023-08-09T03:29:10.401Z,23.40
2023-08-09T03:31:37.027Z,23.50
2023-08-09T03:34:03.739Z,23.50
2023-08-09T03:36:30.955Z,23.50
2023-08-09T03:38:57.550Z,23.40
2023-08-09T03:41:24.227Z,23.30
2023-08-09T03:43:50.848Z,23.30
2023-08-09T03:46:17.509Z,23.20
2023-08-09T03:48:44.163Z,23.10
2023-08-09T03:51:10.830Z,23.00
2023-08-09T03:53:37.525Z,23.00
2023-08-09T03:56:04.268Z,22.90
2023-08-09T03:58:30.867Z,22.80
2023-08-09T04:00:57.489Z,22.70
2023-08-09T04:03:24.149Z,22.70
2023-08-09T04:05:50.806Z,22.70
2023-08-09T04:08:18.380Z,22.70
2023-08-09T04:10:44.996Z,22.70
2023-08-09T04:13:11.610Z,22.70
2023-08-09T04:15:38.276Z,22.80
2023-08-09T04:18:05.128Z,22.90
2023-08-09T04:20:32.644Z,23.10
2023-08-09T04:23:01.377Z,23.20
2023-08-09T04:25:28.168Z,23.30
2023-08-09T04:27:54.833Z,23.20
2023-08-09T04:30:23.715Z,23.20
2023-08-09T04:32:50.631Z,23.10
2023-08-09T04:35:17.374Z,23.10
2023-08-09T04:37:44.056Z,23.00
2023-08-09T04:40:12.179Z,22.90
2023-08-09T04:42:40.078Z,22.90
2023-08-09T04:45:09.390Z,22.80
2023-08-09T04:47:36.238Z,22.80
2023-08-09T04:50:04.468Z,22.80
2023-08-09T04:52:31.437Z,22.70
2023-08-09T04:54:58.099Z,22.70
2023-08-09T04:57:24.823Z,22.70
2023-08-09T04:59:51.441Z,22.70
2023-08-09T05:02:18.046Z,22.60
2023-08-09T05:04:44.728Z,22.60
2023-08-09T05:09:37.965Z,22.60
2023-08-09T05:12:04.740Z,22.50
2023-08-09T05:14:31.378Z,22.50
2023-08-09T05:16:58.121Z,22.60
2023-08-09T05:19:24.898Z,22.60
2023-08-09T05:21:51.550Z,22.60
2023-08-09T05:24:18.209Z,22.60
2023-08-09T05:26:44.827Z,22.70
2023-08-09T05:29:11.538Z,22.70
2023-08-09T05:31:38.893Z,22.80
2023-08-09T05:34:05.757Z,22.80
2023-08-09T05:36:32.522Z,22.80
2023-08-09T05:38:59.180Z,22.80
2023-08-09T05:41:25.894Z,22.80
2023-08-09T05:43:52.527Z,22.90
2023-08-09T05:46:19.606Z,22.80
2023-08-09T05:48:46.276Z,22.90
2023-08-09T05:51:12.933Z,22.90
2023-08-09T05:53:39.566Z,22.90
2023-08-09T05:56:07.286Z,23.00
2023-08-09T05:58:33.922Z,23.20
2023-08-09T06:01:00.601Z,23.30
2023-08-09T06:03:27.335Z,23.40
2023-08-09T06:05:54.050Z,23.60
2023-08-09T06:08:20.732Z,23.60
2023-08-09T06:10:47.507Z,23.60
2023-08-09T06:13:14.185Z,23.60
2023-08-09T06:15:40.879Z,23.60
2023-08-09T06:18:07.597Z,23.60
2023-08-09T06:20:34.319Z,23.50
2023-08-09T06:23:01.041Z,23.50
2023-08-09T06:25:27.715Z,23.40
2023-08-09T06:27:56.152Z,23.40
2023-08-09T06:30:23.032Z,23.40
2023-08-09T06:32:50.650Z,23.40
2023-08-09T06:35:17.386Z,23.40
2023-08-09T06:37:44.044Z,23.40
2023-08-09T06:40:11.259Z,23.30
2023-08-09T06:42:38.193Z,23.30
2023-08-09T06:45:05.237Z,23.30
2023-08-09T06:47:31.897Z,23.30
2023-08-09T06:49:58.564Z,23.30
2023-08-09T06:52:25.286Z,23.20
2023-08-09T06:54:53.392Z,23.20
2023-08-09T06:57:20.599Z,23.20
2023-08-09T06:59:48.540Z,23.20
2023-08-09T07:02:16.107Z,23.20
2023-08-09T07:04:43.008Z,23.20
2023-08-09T07:07:09.752Z,23.20
2023-08-09T07:09:36.539Z,23.20
2023-08-09T07:12:03.316Z,23.20
2023-08-09T07:14:29.977Z,23.20
2023-08-09T07:16:56.623Z,23.20
2023-08-09T07:19:23.380Z,23.20
2023-08-09T07:21:50.059Z,23.20
2023-08-09T07:24:16.750Z,23.10
2023-08-09T07:26:43.400Z,23.20
2023-08-09T07:29:10.168Z,23.20
2023-08-09T07:31:37.233Z,23.20
2023-08-09T07:34:04.327Z,23.20
2023-08-09T07:36:31.240Z,23.20
2023-08-09T07:39:02.109Z,23.30
2023-08-09T07:41:30.343Z,23.40
2023-08-09T07:46:24.975Z,23.70
2023-08-09T07:48:53.074Z,23.70
2023-08-09T07:51:19.832Z,23.80
2023-08-09T07:53:46.864Z,23.80
2023-08-09T07:56:13.686Z,23.80
2023-08-09T07:58:40.411Z,23.80
2023-08-09T08:01:07.167Z,23.70
2023-08-09T08:03:34.032Z,23.70
2023-08-09T08:06:00.684Z,23.70
2023-08-09T08:08:29.018Z,23.60
2023-08-09T08:10:56.960Z,23.60
2023-08-09T08:13:23.643Z,23.60
2023-08-09T08:15:51.585Z,23.50
2023-08-09T08:18:18.446Z,23.50
2023-08-09T08:20:45.149Z,23.50
2023-08-09T08:23:12.120Z,23.50
2023-08-09T08:25:38.771Z,23.50
2023-08-09T08:28:07.045Z,23.40
2023-08-09T08:30:33.740Z,23.40
2023-08-09T08:33:00.637Z,23.40
2023-08-09T08:35:35.016Z,23.40
2023-08-09T08:38:02.012Z,23.20
2023-08-09T08:40:29.231Z,23.40
2023-08-09T08:42:56.068Z,23.40
2023-08-09T08:45:24.091Z,23.30
2023-08-09T08:47:50.878Z,23.30
2023-08-09T08:50:17.908Z,23.30
2023-08-09T08:52:48.551Z,23.30
2023-08-09T08:55:15.444Z,23.30
2023-08-09T08:57:43.163Z,23.30
2023-08-09T09:00:25.042Z,23.30
2023-08-09T09:02:53.990Z,23.30
2023-08-09T09:05:20.900Z,23.30
2023-08-09T09:07:50.836Z,23.30
2023-08-09T09:10:17.831Z,23.20
2023-08-09T09:12:44.531Z,23.30
2023-08-09T09:15:11.237Z,23.40
2023-08-09T09:17:41.789Z,23.50
2023-08-09T09:20:11.577Z,23.60
2023-08-09T09:22:38.272Z,23.70
2023-08-09T09:25:07.406Z,23.80
2023-08-09T09:27:35.049Z,23.80
2023-08-09T09:30:07.446Z,23.90
2023-08-09T09:32:36.937Z,23.80
2023-08-09T09:35:03.700Z,23.80
2023-08-09T09:37:31.020Z,23.70
2023-08-09T09:39:57.890Z,23.70
2023-08-09T09:42:33.968Z,23.70
2023-08-09T09:45:04.666Z,23.70
2023-08-09T09:47:32.908Z,23.60
2023-08-09T09:49:59.628Z,23.60
2023-08-09T09:52:26.688Z,23.60
2023-08-09T09:54:53.346Z,23.60
2023-08-09T09:57:20.059Z,23.60
2023-08-09T09:59:46.712Z,23.50
2023-08-09T10:02:13.455Z,23.50
2023-08-09T10:04:40.099Z,23.50
2023-08-09T10:07:06.814Z,23.40
2023-08-09T10:09:33.523Z,23.50
2023-08-09T10:12:00.674Z,23.30
2023-08-09T10:14:29.224Z,23.40
2023-08-09T10:17:01.958Z,23.40
2023-08-09T10:19:33.182Z,23.40
2023-08-09T10:22:02.375Z,23.50
2023-08-09T10:24:29.395Z,23.60
2023-08-09T10:26:58.229Z,23.70
2023-08-09T10:29:26.149Z,23.80
2023-08-09T10:31:53.204Z,23.90
2023-08-09T10:34:21.294Z,23.90
2023-08-09T10:36:57.007Z,23.90
2023-08-09T10:39:23.874Z,23.70
2023-08-09T10:41:54.437Z,23.90
2023-08-09T10:44:31.810Z,23.80
2023-08-09T10:47:02.558Z,23.80
2023-08-09T10:49:48.188Z,23.80
2023-08-09T10:52:20.702Z,23.80
2023-08-09T10:54:48.185Z,23.70
2023-08-09T10:57:18.716Z,23.70
2023-08-09T10:59:56.887Z,23.70
2023-08-09T11:02:23.745Z,23.70
2023-08-09T11:04:50.862Z,23.60
2023-08-09T11:07:21.066Z,23.60
2023-08-09T11:09:47.821Z,23.60
2023-08-09T11:12:15.880Z,23.60
2023-08-09T11:15:04.426Z,23.60
2023-08-09T11:17:32.655Z,23.60
2023-08-09T11:23:02.020Z,23.60
2023-08-09T11:25:29.753Z,23.50
2023-08-09T11:27:56.972Z,23.80
2023-08-09T11:30:24.173Z,23.90
2023-08-09T11:33:17.211Z,24.00
2023-08-09T11:35:45.417Z,24.00
2023-08-09T11:38:13.616Z,24.00
2023-08-09T11:40:41.055Z,24.00
2023-08-09T11:43:10.454Z,24.00
2023-08-09T11:45:50.416Z,23.90
2023-08-09T11:48:23.928Z,23.90
2023-08-09T11:51:09.339Z,23.80
2023-08-09T11:53:36.790Z,23.80
2023-08-09T11:56:05.590Z,23.80
2023-08-09T11:58:36.414Z,23.80
2023-08-09T12:01:15.823Z,23.70
2023-08-09T12:03:42.660Z,23.70
2023-08-09T12:06:10.287Z,23.70
2023-08-09T12:08:37.507Z,23.70
2023-08-09T12:11:04.332Z,23.60
2023-08-09T12:13:31.089Z,23.60
2023-08-09T12:15:57.933Z,23.60
2023-08-09T12:18:24.824Z,23.60
2023-08-09T12:20:51.529Z,23.70
2023-08-09T12:23:18.230Z,23.80
2023-08-09T12:25:44.924Z,23.90
2023-08-09T12:28:11.661Z,23.90
2023-08-09T12:30:38.660Z,24.10
2023-08-09T12:33:06.375Z,24.10
2023-08-09T12:35:33.092Z,24.10
2023-08-09T12:37:59.734Z,24.10
2023-08-09T12:40:26.398Z,24.10
2023-08-09T12:42:53.073Z,24.00
2023-08-09T12:45:19.737Z,23.90
2023-08-09T12:47:47.126Z,23.90
2023-08-09T12:50:14.093Z,23.90
2023-08-09T12:52:40.955Z,23.80
2023-08-09T12:55:08.754Z,23.80
2023-08-09T12:57:35.445Z,23.80
2023-08-09T13:00:02.130Z,23.80
2023-08-09T13:02:28.770Z,23.70
2023-08-09T13:04:55.395Z,23.70
2023-08-09T13:07:24.239Z,23.70
2023-08-09T13:09:50.963Z,23.70
2023-08-09T13:12:17.943Z,23.70
2023-08-09T13:14:44.701Z,23.60
2023-08-09T13:17:11.331Z,23.70
2023-08-09T13:19:38.079Z,23.70
2023-08-09T13:22:05.196Z,23.80
2023-08-09T13:24:33.390Z,23.90
2023-08-09T13:27:00.462Z,24.00
2023-08-09T13:29:27.241Z,24.10
2023-08-09T13:31:54.073Z,24.10
2023-08-09T13:34:21.379Z,24.10
2023-08-09T13:36:48.079Z,24.10
2023-08-09T13:39:14.767Z,24.10
2023-08-09T13:41:41.556Z,24.10
2023-08-09T13:44:08.347Z,24.00
2023-08-09T13:46:35.423Z,24.00
2023-08-09T13:49:02.741Z,23.90
2023-08-09T13:51:29.654Z,23.90
2023-08-09T13:53:56.386Z,23.80
2023-08-09T13:56:23.083Z,23.80
2023-08-09T13:58:49.746Z,23.80
2023-08-09T14:01:16.568Z,23.80
2023-08-09T14:03:43.234Z,23.80
2023-08-09T14:06:09.863Z,23.70
2023-08-09T14:08:36.488Z,23.80
2023-08-09T14:11:03.139Z,23.80
2023-08-09T14:13:29.820Z,23.70
2023-08-09T14:15:58.478Z,23.70
2023-08-09T14:18:25.423Z,23.80
2023-08-09T14:20:52.071Z,23.80
2023-08-09T14:23:18.910Z,23.90
2023-08-09T14:25:45.962Z,24.00
2023-08-09T14:28:12.624Z,24.10
2023-08-09T14:30:39.361Z,24.20
2023-08-09T14:33:06.681Z,24.20
2023-08-09T14:35:33.463Z,24.20
2023-08-09T14:38:00.123Z,24.20
2023-08-09T14:40:27.556Z,24.10
2023-08-09T14:42:54.203Z,24.10
2023-08-09T14:45:20.873Z,24.00
2023-08-09T14:47:47.748Z,24.00
2023-08-09T14:50:14.409Z,24.00
2023-08-09T14:52:41.027Z,24.00
2023-08-09T14:55:08.477Z,23.90
2023-08-09T14:57:35.141Z,23.90
2023-08-09T15:00:01.807Z,23.80
2023-08-09T15:02:28.580Z,23.80
2023-08-09T15:04:55.289Z,23.80
2023-08-09T15:07:23.629Z,23.80
2023-08-09T15:09:50.523Z,23.80
2023-08-09T15:12:17.215Z,23.80
2023-08-09T15:14:45.191Z,23.80
2023-08-09T15:17:24.060Z,23.90
2023-08-09T15:19:52.735Z,24.00
2023-08-09T15:22:19.403Z,24.10
2023-08-09T15:24:46.042Z,24.20
2023-08-09T15:27:12.772Z,24.30
2023-08-09T15:29:39.560Z,24.30
2023-08-09T15:32:06.353Z,24.30
2023-08-09T15:34:33.974Z,24.20
2023-08-09T15:37:01.133Z,24.20
2023-08-09T15:39:28.198Z,24.10
2023-08-09T15:42:00.540Z,24.10
2023-08-09T15:44:34.939Z,24.10
2023-08-09T15:47:02.073Z,24.00
2023-08-09T15:49:29.156Z,24.00
2023-08-09T15:51:55.791Z,24.00
2023-08-09T15:54:22.441Z,23.90
2023-08-09T15:56:49.073Z,23.90
2023-08-09T15:59:16.357Z,23.90
2023-08-09T16:01:43.226Z,23.90
2023-08-09T16:04:11.060Z,23.80
2023-08-09T16:06:37.981Z,23.80
2023-08-09T16:09:15.480Z,23.80
2023-08-09T16:11:43.242Z,23.80
2023-08-09T16:14:10.803Z,23.90
2023-08-09T16:16:38.301Z,24.10
2023-08-09T16:19:05.384Z,24.10
2023-08-09T16:21:32.046Z,24.20
2023-08-09T16:23:59.145Z,24.30
2023-08-09T16:26:26.932Z,24.30
2023-08-09T16:28:53.579Z,24.30
2023-08-09T16:31:20.229Z,24.20
2023-08-09T16:33:46.922Z,24.20
2023-08-09T16:36:13.528Z,24.10
2023-08-09T16:38:40.189Z,24.10
2023-08-09T16:41:06.885Z,24.10
2023-08-09T16:43:38.501Z,24.10
2023-08-09T16:46:05.316Z,24.00
2023-08-09T16:48:32.321Z,24.00
2023-08-09T16:50:59.074Z,24.00
2023-08-09T16:53:25.721Z,23.90
2023-08-09T16:55:52.354Z,23.80
2023-08-09T16:58:20.153Z,23.90
2023-08-09T17:00:46.905Z,23.90
2023-08-09T17:03:15.346Z,23.80
2023-08-09T17:05:42.486Z,23.90
2023-08-09T17:08:09.532Z,24.00
2023-08-09T17:10:36.260Z,24.10
2023-08-09T17:13:03.940Z,24.20
2023-08-09T17:15:30.604Z,24.20
2023-08-09T17:17:57.305Z,24.30
2023-08-09T17:20:23.945Z,24.30
2023-08-09T17:22:52.407Z,24.30
2023-08-09T17:25:19.984Z,24.30
2023-08-09T17:27:46.802Z,24.30
2023-08-09T17:30:14.117Z,24.20
2023-08-09T17:32:40.917Z,24.20
2023-08-09T17:35:12.308Z,24.10
2023-08-09T17:37:39.050Z,24.10
2023-08-09T17:40:06.126Z,24.10
2023-08-09T17:42:32.770Z,24.00
2023-08-09T17:45:00.799Z,24.00
2023-08-09T17:47:27.687Z,24.00
2023-08-09T17:49:58.189Z,24.00
2023-08-09T17:52:24.921Z,23.90
2023-08-09T17:54:51.543Z,23.90
2023-08-09T17:57:18.141Z,23.90
2023-08-09T17:59:44.784Z,23.80
2023-08-09T18:02:11.442Z,23.90
2023-08-09T18:04:38.112Z,24.00
2023-08-09T18:07:05.750Z,24.10
2023-08-09T18:09:32.788Z,24.20
2023-08-09T18:11:59.415Z,24.20
2023-08-09T18:14:28.114Z,24.30
2023-08-09T18:16:55.103Z,24.30
2023-08-09T18:19:21.759Z,24.40
2023-08-09T18:21:48.629Z,24.40
2023-08-09T18:24:15.278Z,24.30
2023-08-09T18:26:41.950Z,24.30
2023-08-09T18:29:11.206Z,24.20
2023-08-09T18:31:37.888Z,24.10
2023-08-09T18:34:04.532Z,24.10
2023-08-09T18:36:31.180Z,24.10
2023-08-09T18:38:57.831Z,24.10
2023-08-09T18:41:24.499Z,24.10
2023-08-09T18:43:51.144Z,24.00
2023-08-09T18:46:17.775Z,24.00
2023-08-09T18:48:44.432Z,24.00
2023-08-09T18:51:11.499Z,24.00
2023-08-09T18:53:38.142Z,23.90
2023-08-09T18:56:04.897Z,23.90
2023-08-09T18:58:31.542Z,23.80
2023-08-09T19:00:58.187Z,23.80
2023-08-09T19:03:24.858Z,23.80
2023-08-09T19:05:51.587Z,23.80
2023-08-09T19:08:18.754Z,23.80
2023-08-09T19:10:48.185Z,23.80
2023-08-09T19:13:15.184Z,23.80
2023-08-09T19:15:41.845Z,23.80
2023-08-09T19:18:08.680Z,23.80
2023-08-09T19:20:35.550Z,23.90
2023-08-09T19:23:02.340Z,24.00
2023-08-09T19:25:30.236Z,24.10
2023-08-09T19:27:57.070Z,24.10
2023-08-09T19:30:23.798Z,24.30
2023-08-09T19:32:50.941Z,24.30
2023-08-09T19:35:17.824Z,24.30
2023-08-09T19:37:44.641Z,24.30
2023-08-09T19:40:12.053Z,24.20
2023-08-09T19:42:39.391Z,24.20
2023-08-09T19:45:06.460Z,24.10
2023-08-09T19:47:33.273Z,24.10
2023-08-09T19:50:00.025Z,24.10
2023-08-09T19:52:26.725Z,24.00
2023-08-09T19:54:53.446Z,24.00
2023-08-09T19:57:20.443Z,24.00
2023-08-09T19:59:47.171Z,24.00
2023-08-09T20:02:14.084Z,23.90
2023-08-09T20:04:41.654Z,23.90
2023-08-09T20:07:08.492Z,23.90
2023-08-09T20:09:35.959Z,23.90
2023-08-09T20:12:03.276Z,23.80
2023-08-09T20:14:30.114Z,23.80
2023-08-09T20:16:57.064Z,23.80
2023-08-09T20:19:23.836Z,23.80
2023-08-09T20:21:50.455Z,23.80
2023-08-09T20:24:36.126Z,23.80
2023-08-09T20:27:03.219Z,23.80
2023-08-09T20:29:30.163Z,23.70
2023-08-09T20:31:57.375Z,23.70
2023-08-09T20:34:24.036Z,23.70
2023-08-09T20:36:50.841Z,23.80
2023-08-09T20:39:17.724Z,23.80
2023-08-09T20:41:44.386Z,24.00
2023-08-09T20:44:11.033Z,24.10
2023-08-09T20:46:37.732Z,24.20
2023-08-09T20:49:04.591Z,24.30
2023-08-09T20:51:31.338Z,24.30
2023-08-09T20:53:58.144Z,24.30
2023-08-09T20:56:24.848Z,24.30
2023-08-09T20:58:51.494Z,24.30
2023-08-09T21:01:18.179Z,24.20
2023-08-09T21:03:44.869Z,24.10
2023-08-09T21:06:11.603Z,24.10
2023-08-09T21:08:38.517Z,24.10
2023-08-09T21:11:05.165Z,24.10
2023-08-09T21:13:31.801Z,24.00
2023-08-09T21:15:58.572Z,24.00
2023-08-09T21:18:25.633Z,24.00
2023-08-09T21:20:52.249Z,24.00
2023-08-09T21:23:19.520Z,24.00
2023-08-09T21:25:46.677Z,23.90
2023-08-09T21:28:13.452Z,23.90
2023-08-09T21:30:40.128Z,23.80
2023-08-09T21:33:09.118Z,23.80
2023-08-09T21:35:36.128Z,23.80
2023-08-09T21:38:02.774Z,23.80
2023-08-09T21:40:29.464Z,23.80
2023-08-09T21:42:56.099Z,23.70
2023-08-09T21:45:22.711Z,23.70
2023-08-09T21:47:49.372Z,23.70
2023-08-09T21:50:16.152Z,23.70
2023-08-09T21:52:42.940Z,23.70
2023-08-09T21:55:09.711Z,23.70
2023-08-09T21:57:36.358Z,23.70
2023-08-09T22:00:03.288Z,23.70
2023-08-09T22:02:30.064Z,23.60
2023-08-09T22:04:56.862Z,23.70
2023-08-09T22:07:23.492Z,23.60
2023-08-09T22:09:50.141Z,23.70
2023-08-09T22:12:16.831Z,23.80
2023-08-09T22:14:43.574Z,23.90
2023-08-09T22:17:10.286Z,24.00
2023-08-09T22:19:36.957Z,24.10
2023-08-09T22:22:14.242Z,24.20
2023-08-09T22:24:42.292Z,24.30
2023-08-09T22:27:08.969Z,24.30
2023-08-09T22:29:35.638Z,24.20
2023-08-09T22:32:02.545Z,24.20
2023-08-09T22:34:29.500Z,24.10
2023-08-09T22:36:56.255Z,24.10
2023-08-09T22:39:23.755Z,24.10
2023-08-09T22:41:50.559Z,24.00
2023-08-09T22:44:17.198Z,24.00
2023-08-09T22:46:43.870Z,24.00
2023-08-09T22:49:10.559Z,23.90
2023-08-09T22:51:37.205Z,23.90
2023-08-09T22:54:03.963Z,23.80
2023-08-09T22:56:30.648Z,23.80
2023-08-09T22:58:57.284Z,23.80
2023-08-09T23:01:23.991Z,23.80
2023-08-09T23:03:51.018Z,23.80
2023-08-09T23:06:17.650Z,23.80
2023-08-09T23:08:44.271Z,23.80
2023-08-09T23:11:10.992Z,23.70
2023-08-09T23:13:37.631Z,23.70
2023-08-09T23:16:04.417Z,23.70
2023-08-09T23:18:31.229Z,23.70
2023-08-09T23:20:57.880Z,23.70
2023-08-09T23:23:25.041Z,23.70
2023-08-09T23:25:51.820Z,23.70
2023-08-09T23:28:18.665Z,23.70
2023-08-09T23:30:45.759Z,23.60
2023-08-09T23:33:13.400Z,23.60
2023-08-09T23:35:40.030Z,23.60
2023-08-09T23:38:06.795Z,23.60
2023-08-09T23:40:34.023Z,23.60
2023-08-09T23:43:00.678Z,23.70
2023-08-09T23:45:27.953Z,23.80
2023-08-09T23:47:54.734Z,23.90
2023-08-09T23:50:21.378Z,24.00
2023-08-09T23:52:48.036Z,24.10
2023-08-09T23:55:14.704Z,24.20
2023-08-09T23:57:41.341Z,24.20
